sensor_id;sensor_type;location;lat;lon;timestamp;pressure;altitude;pressure_sealevel;temperature;humidity
42001;BME280;27689;48.390;10.856;2023-04-19T00:00:18;96608.19;;;8.79;100.00
42001;BME280;27689;48.390;10.856;2023-04-19T00:03:04;96602.97;;;8.79;100.00
42001;BME280;27689;48.390;10.856;2023-04-19T00:05:48;96601.31;;;8.78;100.00
42001;BME280;27689;48.390;10.856;2023-04-19T00:08:33;96596.09;;;8.78;100.00
42001;BME280;27689;48.390;10.856;2023-04-19T00:11:17;96601.19;;;8.80;100.00
42001;BME280;27689;48.390;10.856;2023-04-19T00:14:00;96601.44;;;8.77;100.00
42001;BME280;27689;48.390;10.856;2023-04-19T00:16:45;96599.66;;;8.77;100.00
42001;BME280;27689;48.390;10.856;2023-04-19T00:19:28;96591.03;;;8.66;100.00
42001;BME280;27689;48.390;10.856;2023-04-19T00:22:12;96586.88;;;8.63;100.00
42001;BME280;27689;48.390;10.856;2023-04-19T00:24:56;96592.91;;;8.64;100.00
42001;BME280;27689;48.390;10.856;2023-04-19T00:27:40;96597.72;;;8.59;100.00
42001;BME280;27689;48.390;10.856;2023-04-19T00:30:24;96598.03;;;8.65;100.00
42001;BME280;27689;48.390;10.856;2023-04-19T00:33:08;96591.84;;;8.66;100.00
42001;BME280;27689;48.390;10.856;2023-04-19T00:35:55;96581.53;;;8.65;100.00
42001;BME280;27689;48.390;10.856;2023-04-19T00:38:39;96580.69;;;8.64;100.00
42001;BME280;27689;48.390;10.856;2023-04-19T00:41:23;96578.09;;;8.64;100.00
42001;BME280;27689;48.390;10.856;2023-04-19T00:44:07;96576.81;;;8.59;100.00
42001;BME280;27689;48.390;10.856;2023-04-19T00:46:51;96575.03;;;8.59;100.00
42001;BME280;27689;48.390;10.856;2023-04-19T00:49:35;96568.47;;;8.65;100.00
42001;BME280;27689;48.390;10.856;2023-04-19T00:52:21;96563.63;;;8.60;100.00
42001;BME280;27689;48.390;10.856;2023-04-19T00:55:05;96565.53;;;8.58;100.00
42001;BME280;27689;48.390;10.856;2023-04-19T00:57:49;96574.63;;;8.64;100.00
42001;BME280;27689;48.390;10.856;2023-04-19T01:00:35;96573.69;;;8.65;100.00
42001;BME280;27689;48.390;10.856;2023-04-19T01:03:19;96567.75;;;8.63;100.00
42001;BME280;27689;48.390;10.856;2023-04-19T01:06:05;96568.16;;;8.58;100.00
42001;BME280;27689;48.390;10.856;2023-04-19T01:08:48;96574.19;;;8.59;100.00
42001;BME280;27689;48.390;10.856;2023-04-19T01:11:32;96566.72;;;8.54;100.00
42001;BME280;27689;48.390;10.856;2023-04-19T01:14:16;96569.81;;;8.59;100.00
42001;BME280;27689;48.390;10.856;2023-04-19T01:17:00;96555.81;;;8.60;100.00
42001;BME280;27689;48.390;10.856;2023-04-19T01:19:44;96562.53;;;8.63;100.00
42001;BME280;27689;48.390;10.856;2023-04-19T01:22:29;96558.41;;;8.60;100.00
42001;BME280;27689;48.390;10.856;2023-04-19T01:25:13;96549.75;;;8.60;100.00
42001;BME280;27689;48.390;10.856;2023-04-19T01:27:57;96551.53;;;8.59;100.00
42001;BME280;27689;48.390;10.856;2023-04-19T01:30:42;96540.50;;;8.56;100.00
42001;BME280;27689;48.390;10.856;2023-04-19T01:33:26;96539.19;;;8.50;100.00
42001;BME280;27689;48.390;10.856;2023-04-19T01:36:10;96540.63;;;8.54;100.00
42001;BME280;27689;48.390;10.856;2023-04-19T01:38:54;96540.84;;;8.51;100.00
42001;BME280;27689;48.390;10.856;2023-04-19T01:41:38;96543.34;;;8.53;100.00
42001;BME280;27689;48.390;10.856;2023-04-19T01:44:22;96543.34;;;8.53;100.00
42001;BME280;27689;48.390;10.856;2023-04-19T01:47:06;96533.03;;;8.51;100.00
42001;BME280;27689;48.390;10.856;2023-04-19T01:49:50;96532.44;;;8.47;100.00
42001;BME280;27689;48.390;10.856;2023-04-19T01:52:34;96529.69;;;8.49;100.00
42001;BME280;27689;48.390;10.856;2023-04-19T01:55:18;96522.38;;;8.43;100.00
42001;BME280;27689;48.390;10.856;2023-04-19T01:58:02;96533.16;;;8.49;100.00
42001;BME280;27689;48.390;10.856;2023-04-19T02:00:46;96531.16;;;8.42;100.00
42001;BME280;27689;48.390;10.856;2023-04-19T02:03:29;96529.50;;;8.41;100.00
42001;BME280;27689;48.390;10.856;2023-04-19T02:06:13;96529.88;;;8.36;100.00
42001;BME280;27689;48.390;10.856;2023-04-19T02:08:57;96523.09;;;8.34;100.00
42001;BME280;27689;48.390;10.856;2023-04-19T02:11:41;96519.28;;;8.38;100.00
42001;BME280;27689;48.390;10.856;2023-04-19T02:14:25;96519.41;;;8.36;100.00
42001;BME280;27689;48.390;10.856;2023-04-19T02:17:09;96506.38;;;8.36;100.00
42001;BME280;27689;48.390;10.856;2023-04-19T02:19:55;96517.88;;;8.45;100.00
42001;BME280;27689;48.390;10.856;2023-04-19T02:22:39;96502.22;;;8.34;100.00
42001;BME280;27689;48.390;10.856;2023-04-19T02:25:23;96504.81;;;8.34;100.00
42001;BME280;27689;48.390;10.856;2023-04-19T02:28:06;96505.78;;;8.33;100.00
42001;BME280;27689;48.390;10.856;2023-04-19T02:30:50;96505.53;;;8.36;100.00
42001;BME280;27689;48.390;10.856;2023-04-19T02:33:34;96504.13;;;8.32;100.00
42001;BME280;27689;48.390;10.856;2023-04-19T02:36:18;96502.22;;;8.34;100.00
42001;BME280;27689;48.390;10.856;2023-04-19T02:39:02;96498.91;;;8.32;100.00
42001;BME280;27689;48.390;10.856;2023-04-19T02:41:48;96493.91;;;8.29;100.00
42001;BME280;27689;48.390;10.856;2023-04-19T02:44:32;96496.28;;;8.32;100.00
42001;BME280;27689;48.390;10.856;2023-04-19T02:47:16;96503.63;;;8.38;100.00
42001;BME280;27689;48.390;10.856;2023-04-19T02:50:00;96496.03;;;8.35;100.00
42001;BME280;27689;48.390;10.856;2023-04-19T02:52:44;96499.59;;;8.34;100.00
42001;BME280;27689;48.390;10.856;2023-04-19T02:55:28;96494.63;;;8.31;100.00
42001;BME280;27689;48.390;10.856;2023-04-19T02:58:12;96494.25;;;8.35;100.00
42001;BME280;27689;48.390;10.856;2023-04-19T03:00:56;96494.97;;;8.37;100.00
42001;BME280;27689;48.390;10.856;2023-04-19T03:03:40;96474.81;;;8.28;100.00
42001;BME280;27689;48.390;10.856;2023-04-19T03:06:24;96484.31;;;8.29;100.00
42001;BME280;27689;48.390;10.856;2023-04-19T03:09:09;96481.94;;;8.26;100.00
42001;BME280;27689;48.390;10.856;2023-04-19T03:11:52;96475.19;;;8.24;100.00
42001;BME280;27689;48.390;10.856;2023-04-19T03:14:36;96474.22;;;8.25;100.00
42001;BME280;27689;48.390;10.856;2023-04-19T03:17:20;96471.97;;;8.20;100.00
42001;BME280;27689;48.390;10.856;2023-04-19T03:20:05;96471.97;;;8.20;100.00
42001;BME280;27689;48.390;10.856;2023-04-19T03:22:52;96463.19;;;8.21;100.00
42001;BME280;27689;48.390;10.856;2023-04-19T03:25:35;96465.69;;;8.23;100.00
42001;BME280;27689;48.390;10.856;2023-04-19T03:28:20;96465.69;;;8.23;100.00
42001;BME280;27689;48.390;10.856;2023-04-19T03:31:04;96465.56;;;8.24;100.00
42001;BME280;27689;48.390;10.856;2023-04-19T03:33:48;96454.41;;;8.22;100.00
42001;BME280;27689;48.390;10.856;2023-04-19T03:36:32;96462.84;;;8.26;100.00
42001;BME280;27689;48.390;10.856;2023-04-19T03:39:16;96458.44;;;8.26;100.00
42001;BME280;27689;48.390;10.856;2023-04-19T03:42:00;96449.78;;;8.26;100.00
42001;BME280;27689;48.390;10.856;2023-04-19T03:44:43;96457.50;;;8.27;100.00
42001;BME280;27689;48.390;10.856;2023-04-19T03:47:28;96452.97;;;8.29;100.00
42001;BME280;27689;48.390;10.856;2023-04-19T03:50:12;96443.63;;;8.27;100.00
42001;BME280;27689;48.390;10.856;2023-04-19T03:52:56;96439.47;;;8.24;100.00
42001;BME280;27689;48.390;10.856;2023-04-19T03:55:40;96445.28;;;8.28;100.00
42001;BME280;27689;48.390;10.856;2023-04-19T03:58:24;96441.94;;;8.26;100.00
42001;BME280;27689;48.390;10.856;2023-04-19T04:01:16;96441.00;;;8.27;100.00
42001;BME280;27689;48.390;10.856;2023-04-19T04:04:00;96437.22;;;8.20;100.00
42001;BME280;27689;48.390;10.856;2023-04-19T04:06:44;96442.91;;;8.25;100.00
42001;BME280;27689;48.390;10.856;2023-04-19T04:09:28;96443.16;;;8.22;100.00
42001;BME280;27689;48.390;10.856;2023-04-19T04:12:12;96450.84;;;8.23;100.00
42001;BME280;27689;48.390;10.856;2023-04-19T04:14:56;96450.97;;;8.22;100.00
42001;BME280;27689;48.390;10.856;2023-04-19T04:17:40;96451.69;;;8.24;100.00
42001;BME280;27689;48.390;10.856;2023-04-19T04:20:24;96446.59;;;8.22;100.00
42001;BME280;27689;48.390;10.856;2023-04-19T04:23:08;96452.63;;;8.23;100.00
42001;BME280;27689;48.390;10.856;2023-04-19T04:25:57;96450.50;;;8.28;100.00
42001;BME280;27689;48.390;10.856;2023-04-19T04:28:43;96459.75;;;8.32;100.00
42001;BME280;27689;48.390;10.856;2023-04-19T04:31:27;96460.47;;;8.23;100.00
42001;BME280;27689;48.390;10.856;2023-04-19T04:34:11;96459.75;;;8.21;100.00
42001;BME280;27689;48.390;10.856;2023-04-19T04:36:55;96459.75;;;8.21;100.00
42001;BME280;27689;48.390;10.856;2023-04-19T04:39:39;96461.28;;;8.23;100.00
42001;BME280;27689;48.390;10.856;2023-04-19T04:42:23;96458.94;;;8.20;100.00
42001;BME280;27689;48.390;10.856;2023-04-19T04:45:07;96462.84;;;8.26;100.00
42001;BME280;27689;48.390;10.856;2023-04-19T04:47:53;96454.53;;;8.21;100.00
42001;BME280;27689;48.390;10.856;2023-04-19T04:50:37;96459.63;;;8.22;100.00
42001;BME280;27689;48.390;10.856;2023-04-19T04:53:21;96463.06;;;8.23;100.00
42001;BME280;27689;48.390;10.856;2023-04-19T04:56:06;96458.34;;;8.17;100.00
42001;BME280;27689;48.390;10.856;2023-04-19T04:58:50;96460.00;;;8.18;100.00
42001;BME280;27689;48.390;10.856;2023-04-19T05:01:34;96462.47;;;8.19;100.00
42001;BME280;27689;48.390;10.856;2023-04-19T05:04:19;96463.31;;;8.20;100.00
42001;BME280;27689;48.390;10.856;2023-04-19T05:07:03;96459.03;;;8.19;100.00
42001;BME280;27689;48.390;10.856;2023-04-19T05:09:47;96455.72;;;8.17;100.00
42001;BME280;27689;48.390;10.856;2023-04-19T05:12:31;96450.91;;;8.12;100.00
42001;BME280;27689;48.390;10.856;2023-04-19T05:15:15;96455.06;;;8.14;100.00
42001;BME280;27689;48.390;10.856;2023-04-19T05:17:58;96459.16;;;8.17;100.00
42001;BME280;27689;48.390;10.856;2023-04-19T05:20:42;96450.72;;;8.25;100.00
42001;BME280;27689;48.390;10.856;2023-04-19T05:23:26;96456.66;;;8.27;100.00
42001;BME280;27689;48.390;10.856;2023-04-19T05:26:10;96448.84;;;8.27;100.00
42001;BME280;27689;48.390;10.856;2023-04-19T05:28:55;96447.41;;;8.23;100.00
42001;BME280;27689;48.390;10.856;2023-04-19T05:31:39;96455.94;;;8.25;100.00
42001;BME280;27689;48.390;10.856;2023-04-19T05:34:23;96447.41;;;8.23;100.00
42001;BME280;27689;48.390;10.856;2023-04-19T05:37:07;96448.38;;;8.22;100.00
42001;BME280;27689;48.390;10.856;2023-04-19T05:39:51;96439.81;;;8.20;100.00
42001;BME280;27689;48.390;10.856;2023-04-19T05:42:35;96452.31;;;8.16;100.00
42001;BME280;27689;48.390;10.856;2023-04-19T05:45:20;96446.50;;;8.12;100.00
42001;BME280;27689;48.390;10.856;2023-04-19T05:48:05;96447.59;;;8.10;100.00
42001;BME280;27689;48.390;10.856;2023-04-19T05:50:49;96451.84;;;8.11;100.00
42001;BME280;27689;48.390;10.856;2023-04-19T05:53:34;96445.34;;;8.05;100.00
42001;BME280;27689;48.390;10.856;2023-04-19T05:56:19;96446.03;;;8.07;100.00
42001;BME280;27689;48.390;10.856;2023-04-19T05:59:03;96447.47;;;8.11;100.00
42001;BME280;27689;48.390;10.856;2023-04-19T06:01:46;96450.16;;;8.21;100.00
42001;BME280;27689;48.390;10.856;2023-04-19T06:04:30;96450.50;;;8.17;100.00
42001;BME280;27689;48.390;10.856;2023-04-19T06:07:14;96456.72;;;8.16;100.00
42001;BME280;27689;48.390;10.856;2023-04-19T06:09:58;96450.78;;;8.13;100.00
42001;BME280;27689;48.390;10.856;2023-04-19T06:12:42;96455.72;;;8.17;100.00
42001;BME280;27689;48.390;10.856;2023-04-19T06:15:26;96457.06;;;8.11;100.00
42001;BME280;27689;48.390;10.856;2023-04-19T06:18:18;96456.94;;;8.12;100.00
42001;BME280;27689;48.390;10.856;2023-04-19T06:21:14;96445.34;;;8.05;100.00
42001;BME280;27689;48.390;10.856;2023-04-19T06:23:59;96451.09;;;8.20;100.00
42001;BME280;27689;48.390;10.856;2023-04-19T06:26:43;96453.59;;;8.22;100.00
42001;BME280;27689;48.390;10.856;2023-04-19T06:29:27;96455.13;;;8.24;100.00
42001;BME280;27689;48.390;10.856;2023-04-19T06:32:11;96450.97;;;8.22;100.00
42001;BME280;27689;48.390;10.856;2023-04-19T06:34:55;96453.69;;;8.20;100.00
42001;BME280;27689;48.390;10.856;2023-04-19T06:37:39;96453.47;;;8.23;100.00
42001;BME280;27689;48.390;10.856;2023-04-19T06:40:24;96457.38;;;8.29;100.00
42001;BME280;27689;48.390;10.856;2023-04-19T06:43:08;96446.00;;;8.19;100.00
42001;BME280;27689;48.390;10.856;2023-04-19T06:45:59;96444.69;;;8.24;100.00
42001;BME280;27689;48.390;10.856;2023-04-19T06:48:43;96447.63;;;8.31;100.00
42001;BME280;27689;48.390;10.856;2023-04-19T06:51:27;96447.03;;;8.38;100.00
42001;BME280;27689;48.390;10.856;2023-04-19T06:54:11;96445.97;;;8.41;100.00
42001;BME280;27689;48.390;10.856;2023-04-19T06:56:55;96451.19;;;8.41;100.00
42001;BME280;27689;48.390;10.856;2023-04-19T06:59:39;96442.97;;;8.45;100.00
42001;BME280;27689;48.390;10.856;2023-04-19T07:02:24;96447.94;;;8.48;100.00
42001;BME280;27689;48.390;10.856;2023-04-19T07:05:08;96443.16;;;8.54;100.00
42001;BME280;27689;48.390;10.856;2023-04-19T07:07:52;96443.63;;;8.59;100.00
42001;BME280;27689;48.390;10.856;2023-04-19T07:10:36;96436.75;;;8.58;100.00
42001;BME280;27689;48.390;10.856;2023-04-19T07:13:20;96436.34;;;8.62;100.00
42001;BME280;27689;48.390;10.856;2023-04-19T07:16:04;96440.69;;;8.73;100.00
42001;BME280;27689;48.390;10.856;2023-04-19T07:18:48;96439.03;;;8.72;100.00
42001;BME280;27689;48.390;10.856;2023-04-19T07:21:33;96430.25;;;8.73;100.00
42001;BME280;27689;48.390;10.856;2023-04-19T07:24:18;96430.38;;;8.71;100.00
42001;BME280;27689;48.390;10.856;2023-04-19T07:27:02;96432.78;;;8.84;100.00
42001;BME280;27689;48.390;10.856;2023-04-19T07:29:46;96424.25;;;8.82;100.00
42001;BME280;27689;48.390;10.856;2023-04-19T07:32:30;96417.81;;;8.86;100.00
42001;BME280;27689;48.390;10.856;2023-04-19T07:35:14;96416.09;;;8.96;100.00
42001;BME280;27689;48.390;10.856;2023-04-19T07:37:58;96422.34;;;9.05;100.00
42001;BME280;27689;48.390;10.856;2023-04-19T07:40:42;96418.53;;;9.18;100.00
42001;BME280;27689;48.390;10.856;2023-04-19T07:43:25;96416.66;;;9.30;100.00
42001;BME280;27689;48.390;10.856;2023-04-19T07:46:12;96412.69;;;9.36;100.00
42001;BME280;27689;48.390;10.856;2023-04-19T07:48:56;96412.41;;;9.39;100.00
42001;BME280;27689;48.390;10.856;2023-04-19T07:51:40;96407.25;;;9.48;99.46
42001;BME280;27689;48.390;10.856;2023-04-19T07:54:24;96411.66;;;9.48;99.74
42001;BME280;27689;48.390;10.856;2023-04-19T07:57:08;96409.44;;;9.53;100.00
42001;BME280;27689;48.390;10.856;2023-04-19T07:59:52;96408.09;;;9.59;99.14
42001;BME280;27689;48.390;10.856;2023-04-19T08:02:43;96400.81;;;9.62;98.26
42001;BME280;27689;48.390;10.856;2023-04-19T08:05:29;96401.34;;;9.66;99.00
42001;BME280;27689;48.390;10.856;2023-04-19T08:08:14;96394.63;;;9.73;99.66
42001;BME280;27689;48.390;10.856;2023-04-19T08:10:59;96391.19;;;9.82;100.00
42001;BME280;27689;48.390;10.856;2023-04-19T08:13:44;96395.59;;;9.81;97.43
42001;BME280;27689;48.390;10.856;2023-04-19T08:16:28;96395.47;;;9.83;96.47
42001;BME280;27689;48.390;10.856;2023-04-19T08:19:12;96398.50;;;9.88;97.57
42001;BME280;27689;48.390;10.856;2023-04-19T08:21:56;96393.72;;;9.93;96.59
42001;BME280;27689;48.390;10.856;2023-04-19T08:24:40;96390.28;;;9.93;96.75
42001;BME280;27689;48.390;10.856;2023-04-19T08:27:24;96396.34;;;9.93;96.45
42001;BME280;27689;48.390;10.856;2023-04-19T08:30:09;96396.84;;;9.97;98.14
42001;BME280;27689;48.390;10.856;2023-04-19T08:32:53;96397.03;;;10.05;97.03
42001;BME280;27689;48.390;10.856;2023-04-19T08:35:38;96392.88;;;10.12;96.98
42001;BME280;27689;48.390;10.856;2023-04-19T08:38:24;96393.06;;;10.20;94.95
42001;BME280;27689;48.390;10.856;2023-04-19T08:41:10;96393.19;;;10.28;93.81
42001;BME280;27689;48.390;10.856;2023-04-19T08:43:54;96382.59;;;10.30;91.83
42001;BME280;27689;48.390;10.856;2023-04-19T08:46:39;96380.66;;;10.32;94.29
42001;BME280;27689;48.390;10.856;2023-04-19T08:49:24;96387.66;;;10.41;94.65
42001;BME280;27689;48.390;10.856;2023-04-19T08:52:11;96384.25;;;10.50;92.65
42001;BME280;27689;48.390;10.856;2023-04-19T08:54:56;96369.22;;;10.52;93.16
42001;BME280;27689;48.390;10.856;2023-04-19T08:57:40;96380.34;;;10.64;94.27
42001;BME280;27689;48.390;10.856;2023-04-19T09:00:24;96375.78;;;10.75;90.70
42001;BME280;27689;48.390;10.856;2023-04-19T09:03:08;96372.88;;;10.69;91.99
42001;BME280;27689;48.390;10.856;2023-04-19T09:05:53;96372.88;;;10.78;92.58
42001;BME280;27689;48.390;10.856;2023-04-19T09:08:38;96362.06;;;10.91;89.91
42001;BME280;27689;48.390;10.856;2023-04-19T09:11:35;96360.97;;;10.84;90.05
42001;BME280;27689;48.390;10.856;2023-04-19T09:14:21;96361.44;;;10.79;90.03
42001;BME280;27689;48.390;10.856;2023-04-19T09:17:12;96370.44;;;10.67;90.33
42001;BME280;27689;48.390;10.856;2023-04-19T09:19:57;96355.38;;;10.79;88.28
42001;BME280;27689;48.390;10.856;2023-04-19T09:22:41;96350.13;;;10.69;88.88
42001;BME280;27689;48.390;10.856;2023-04-19T09:25:25;96353.31;;;10.63;89.28
42001;BME280;27689;48.390;10.856;2023-04-19T09:28:13;96343.78;;;10.72;87.64
42001;BME280;27689;48.390;10.856;2023-04-19T09:30:57;96341.88;;;10.64;88.54
42001;BME280;27689;48.390;10.856;2023-04-19T09:33:53;96344.25;;;10.48;90.04
42001;BME280;27689;48.390;10.856;2023-04-19T09:36:37;96333.06;;;10.55;91.46
42001;BME280;27689;48.390;10.856;2023-04-19T09:39:29;96334.72;;;10.66;92.27
42001;BME280;27689;48.390;10.856;2023-04-19T09:42:14;96323.22;;;10.77;91.50
42001;BME280;27689;48.390;10.856;2023-04-19T09:44:58;96336.16;;;10.88;89.54
42001;BME280;27689;48.390;10.856;2023-04-19T09:47:42;96324.56;;;10.90;90.57
42001;BME280;27689;48.390;10.856;2023-04-19T09:50:25;96321.47;;;11.05;90.67
42001;BME280;27689;48.390;10.856;2023-04-19T09:53:09;96322.56;;;11.12;88.85
42001;BME280;27689;48.390;10.856;2023-04-19T09:55:55;96318.34;;;11.19;86.54
42001;BME280;27689;48.390;10.856;2023-04-19T09:58:39;96303.16;;;11.22;88.32
42001;BME280;27689;48.390;10.856;2023-04-19T10:01:23;96301.75;;;11.28;88.23
42001;BME280;27689;48.390;10.856;2023-04-19T10:04:10;96301.09;;;11.44;85.05
42001;BME280;27689;48.390;10.856;2023-04-19T10:06:55;96304.66;;;11.52;83.15
42001;BME280;27689;48.390;10.856;2023-04-19T10:09:39;96288.63;;;11.55;82.53
42001;BME280;27689;48.390;10.856;2023-04-19T10:12:24;96295.88;;;11.61;83.02
42001;BME280;27689;48.390;10.856;2023-04-19T10:15:10;96290.25;;;11.74;82.19
42001;BME280;27689;48.390;10.856;2023-04-19T10:17:56;96294.31;;;11.69;82.51
42001;BME280;27689;48.390;10.856;2023-04-19T10:20:58;96288.47;;;11.75;83.81
42001;BME280;27689;48.390;10.856;2023-04-19T10:23:44;96282.94;;;11.78;85.20
42001;BME280;27689;48.390;10.856;2023-04-19T10:26:27;96285.66;;;11.86;84.16
42001;BME280;27689;48.390;10.856;2023-04-19T10:29:11;96284.84;;;11.85;81.83
42001;BME280;27689;48.390;10.856;2023-04-19T10:31:55;96286.41;;;11.96;84.20
42001;BME280;27689;48.390;10.856;2023-04-19T10:34:40;96280.19;;;11.97;80.44
42001;BME280;27689;48.390;10.856;2023-04-19T10:37:24;96278.44;;;11.88;81.29
42001;BME280;27689;48.390;10.856;2023-04-19T10:40:09;96275.91;;;11.78;85.08
42001;BME280;27689;48.390;10.856;2023-04-19T10:46:02;96278.56;;;11.51;86.22
42001;BME280;27689;48.390;10.856;2023-04-19T10:48:56;96278.53;;;11.33;87.77
42001;BME280;27689;48.390;10.856;2023-04-19T10:51:46;96278.13;;;11.28;88.15
42001;BME280;27689;48.390;10.856;2023-04-19T10:54:33;96267.09;;;11.07;91.64
42001;BME280;27689;48.390;10.856;2023-04-19T10:57:18;96264.75;;;11.04;91.85
42001;BME280;27689;48.390;10.856;2023-04-19T11:00:18;96259.56;;;10.94;93.01
42001;BME280;27689;48.390;10.856;2023-04-19T11:06:27;96265.31;;;10.70;95.63
42001;BME280;27689;48.390;10.856;2023-04-19T11:09:10;96258.72;;;10.66;96.74
42001;BME280;27689;48.390;10.856;2023-04-19T11:12:07;96256.25;;;10.65;98.04
42001;BME280;27689;48.390;10.856;2023-04-19T11:14:57;96254.47;;;10.65;97.59
42001;BME280;27689;48.390;10.856;2023-04-19T11:17:42;96256.81;;;10.58;97.67
42001;BME280;27689;48.390;10.856;2023-04-19T11:20:26;96253.00;;;10.43;100.00
42001;BME280;27689;48.390;10.856;2023-04-19T11:23:17;96250.25;;;10.45;98.38
42001;BME280;27689;48.390;10.856;2023-04-19T11:26:01;96247.75;;;10.43;100.00
42001;BME280;27689;48.390;10.856;2023-04-19T11:28:45;96241.84;;;10.41;100.00
42001;BME280;27689;48.390;10.856;2023-04-19T11:31:32;96239.25;;;10.32;100.00
42001;BME280;27689;48.390;10.856;2023-04-19T11:34:16;96230.44;;;10.33;100.00
42001;BME280;27689;48.390;10.856;2023-04-19T11:37:02;96234.97;;;10.31;100.00
42001;BME280;27689;48.390;10.856;2023-04-19T11:39:46;96236.34;;;10.35;100.00
42001;BME280;27689;48.390;10.856;2023-04-19T11:42:30;96234.28;;;10.29;100.00
42001;BME280;27689;48.390;10.856;2023-04-19T11:45:28;96236.53;;;10.23;100.00
42001;BME280;27689;48.390;10.856;2023-04-19T11:48:13;96230.72;;;10.10;100.00
42001;BME280;27689;48.390;10.856;2023-04-19T11:51:01;96222.16;;;10.18;100.00
42001;BME280;27689;48.390;10.856;2023-04-19T11:53:46;96229.50;;;9.95;100.00
42001;BME280;27689;48.390;10.856;2023-04-19T11:56:30;96229.09;;;10.00;100.00
42001;BME280;27689;48.390;10.856;2023-04-19T11:59:14;96226.06;;;10.04;100.00
42001;BME280;27689;48.390;10.856;2023-04-19T12:02:08;96224.41;;;10.03;100.00
42001;BME280;27689;48.390;10.856;2023-04-19T12:04:52;96224.69;;;10.00;100.00
42001;BME280;27689;48.390;10.856;2023-04-19T12:07:37;96221.25;;;9.90;100.00
42001;BME280;27689;48.390;10.856;2023-04-19T12:10:54;96217.81;;;9.89;100.00
42001;BME280;27689;48.390;10.856;2023-04-19T12:13:38;96222.78;;;9.93;100.00
42001;BME280;27689;48.390;10.856;2023-04-19T12:16:27;96210.34;;;9.95;100.00
42001;BME280;27689;48.390;10.856;2023-04-19T12:19:16;96224.44;;;9.84;100.00
42001;BME280;27689;48.390;10.856;2023-04-19T12:22:08;96217.13;;;9.87;100.00
42001;BME280;27689;48.390;10.856;2023-04-19T12:24:53;96217.44;;;9.75;100.00
42001;BME280;27689;48.390;10.856;2023-04-19T12:27:39;96217.84;;;9.61;100.00
42001;BME280;27689;48.390;10.856;2023-04-19T12:30:24;96218.53;;;9.53;100.00
42001;BME280;27689;48.390;10.856;2023-04-19T12:33:09;96213.28;;;9.53;100.00
42001;BME280;27689;48.390;10.856;2023-04-19T12:35:53;96220.31;;;9.33;100.00
42001;BME280;27689;48.390;10.856;2023-04-19T12:38:37;96211.66;;;9.33;100.00
42001;BME280;27689;48.390;10.856;2023-04-19T12:41:20;96215.63;;;9.27;100.00
42001;BME280;27689;48.390;10.856;2023-04-19T12:44:05;96207.22;;;9.24;100.00
42001;BME280;27689;48.390;10.856;2023-04-19T12:46:49;96215.06;;;9.24;100.00
42001;BME280;27689;48.390;10.856;2023-04-19T12:49:33;96208.59;;;9.18;100.00
42001;BME280;27689;48.390;10.856;2023-04-19T12:52:18;96207.50;;;9.20;100.00
42001;BME280;27689;48.390;10.856;2023-04-19T12:55:02;96212.19;;;9.17;100.00
42001;BME280;27689;48.390;10.856;2023-04-19T12:57:46;96214.94;;;9.15;100.00
42001;BME280;27689;48.390;10.856;2023-04-19T13:00:30;96215.31;;;9.11;100.00
42001;BME280;27689;48.390;10.856;2023-04-19T13:03:14;96209.69;;;9.15;100.00
42001;BME280;27689;48.390;10.856;2023-04-19T13:05:59;96213.53;;;9.11;100.00
42001;BME280;27689;48.390;10.856;2023-04-19T13:08:43;96215.19;;;9.12;100.00
42001;BME280;27689;48.390;10.856;2023-04-19T13:11:27;96213.78;;;8.99;100.00
42001;BME280;27689;48.390;10.856;2023-04-19T13:14:11;96201.94;;;8.95;100.00
42001;BME280;27689;48.390;10.856;2023-04-19T13:16:55;96206.78;;;8.90;100.00
42001;BME280;27689;48.390;10.856;2023-04-19T13:19:38;96211.72;;;8.93;100.00
42001;BME280;27689;48.390;10.856;2023-04-19T13:22:22;96201.94;;;8.85;100.00
42001;BME280;27689;48.390;10.856;2023-04-19T13:25:07;96201.81;;;8.87;100.00
42001;BME280;27689;48.390;10.856;2023-04-19T13:27:51;96196.72;;;8.85;100.00
42001;BME280;27689;48.390;10.856;2023-04-19T13:30:35;96194.94;;;8.86;100.00
42001;BME280;27689;48.390;10.856;2023-04-19T13:33:19;96184.63;;;8.94;100.00
42001;BME280;27689;48.390;10.856;2023-04-19T13:36:03;96197.53;;;8.86;100.00
42001;BME280;27689;48.390;10.856;2023-04-19T13:38:47;96192.13;;;8.68;100.00
42001;BME280;27689;48.390;10.856;2023-04-19T13:41:31;96203.66;;;8.65;100.00
42001;BME280;27689;48.390;10.856;2023-04-19T13:44:15;96201.09;;;8.75;100.00
42001;BME280;27689;48.390;10.856;2023-04-19T13:46:59;96201.50;;;8.70;100.00
42001;BME280;27689;48.390;10.856;2023-04-19T13:49:43;96190.09;;;8.71;100.00
42001;BME280;27689;48.390;10.856;2023-04-19T13:52:28;96195.44;;;8.70;100.00
42001;BME280;27689;48.390;10.856;2023-04-19T13:55:12;96189.97;;;8.73;100.00
42001;BME280;27689;48.390;10.856;2023-04-19T13:57:56;96184.97;;;8.60;100.00
42001;BME280;27689;48.390;10.856;2023-04-19T14:00:40;96191.00;;;8.61;100.00
42001;BME280;27689;48.390;10.856;2023-04-19T14:03:24;96200.91;;;8.57;100.00
42001;BME280;27689;48.390;10.856;2023-04-19T14:06:09;96205.25;;;8.47;100.00
42001;BME280;27689;48.390;10.856;2023-04-19T14:08:53;96209.88;;;8.34;100.00
42001;BME280;27689;48.390;10.856;2023-04-19T14:11:37;96209.59;;;8.37;100.00
42001;BME280;27689;48.390;10.856;2023-04-19T14:14:21;96207.94;;;8.36;100.00
42001;BME280;27689;48.390;10.856;2023-04-19T14:17:05;96205.28;;;8.26;100.00
42001;BME280;27689;48.390;10.856;2023-04-19T14:19:49;96204.69;;;8.23;100.00
42001;BME280;27689;48.390;10.856;2023-04-19T14:22:33;96211.66;;;8.12;100.00
42001;BME280;27689;48.390;10.856;2023-04-19T14:25:18;96200.19;;;8.04;100.00
42001;BME280;27689;48.390;10.856;2023-04-19T14:28:02;96201.81;;;7.95;100.00